createdAt,value
2018-12-22T00:00:10.119Z,100133.29
2018-12-22T00:02:40.875Z,100132.83
2018-12-22T00:05:10.012Z,100133.41
2018-12-22T00:07:38.851Z,100124.75
2018-12-22T00:10:08.019Z,100125.33
2018-12-22T00:12:36.865Z,100132.67
2018-12-22T00:15:05.976Z,100137.77
2018-12-22T00:17:34.824Z,100127.81
2018-12-22T00:20:05.215Z,100134.33
2018-12-22T00:22:34.102Z,100130.80
2018-12-22T00:25:03.164Z,100133.29
2018-12-22T00:27:32.104Z,100129.50
2018-12-22T00:30:01.033Z,100136.36
2018-12-22T00:32:30.315Z,100134.13
2018-12-22T00:34:59.306Z,100138.31
2018-12-22T00:37:28.294Z,100140.75
2018-12-22T00:39:57.294Z,100141.56
2018-12-22T00:42:26.433Z,100141.67
2018-12-22T00:44:55.284Z,100144.50
2018-12-22T00:47:24.338Z,100141.05
2018-12-22T00:49:53.346Z,100144.69
2018-12-22T00:52:22.251Z,100142.66
2018-12-22T00:54:51.342Z,100150.34
2018-12-22T00:57:20.258Z,100145.14
2018-12-22T00:59:49.248Z,100148.23
2018-12-22T01:02:18.290Z,100151.03
2018-12-22T01:04:47.312Z,100145.83
2018-12-22T01:07:16.206Z,100151.30
2018-12-22T01:09:45.199Z,100142.19
2018-12-22T01:12:14.287Z,100147.51
2018-12-22T01:14:43.187Z,100150.00
2018-12-22T01:17:12.254Z,100151.41
2018-12-22T01:19:41.267Z,100154.47
2018-12-22T01:22:10.230Z,100151.14
2018-12-22T01:24:39.244Z,100155.61
2018-12-22T01:27:08.246Z,100160.08
2018-12-22T01:29:36.956Z,100159.13
2018-12-22T01:32:05.967Z,100166.30
2018-12-22T01:34:34.826Z,100159.79
2018-12-22T01:37:03.958Z,100159.87
2018-12-22T01:39:32.883Z,100160.70
2018-12-22T01:42:01.880Z,100160.81
2018-12-22T01:44:30.875Z,100159.98
2018-12-22T01:46:59.850Z,100162.95
2018-12-22T01:49:28.770Z,100155.61
2018-12-22T01:51:57.916Z,100154.42
2018-12-22T01:54:26.915Z,100151.55
2018-12-22T01:56:55.747Z,100157.89
2018-12-22T01:59:24.742Z,100168.75
2018-12-22T02:01:53.830Z,100164.96
2018-12-22T02:04:22.802Z,100153.25
2018-12-22T02:06:52.040Z,100153.14
2018-12-22T02:09:21.110Z,100149.63
2018-12-22T02:11:50.073Z,100151.55
2018-12-22T02:14:19.011Z,100144.47
2018-12-22T02:16:48.067Z,100138.31
2018-12-22T02:19:18.223Z,100137.39
2018-12-22T02:21:47.207Z,100144.41
2018-12-22T02:24:16.266Z,100147.75
2018-12-22T02:26:45.275Z,100137.83
2018-12-22T02:29:14.008Z,100141.89
2018-12-22T02:31:42.880Z,100133.86
2018-12-22T02:34:11.931Z,100123.72
2018-12-22T02:36:40.936Z,100131.69
2018-12-22T02:39:09.864Z,100124.04
2018-12-22T02:41:38.853Z,100131.84
2018-12-22T02:44:08.155Z,100125.23
2018-12-22T02:46:37.332Z,100122.32
2018-12-22T02:49:06.512Z,100116.00
2018-12-22T02:51:35.436Z,100104.63
2018-12-22T02:54:05.424Z,100104.39
2018-12-22T02:56:34.428Z,100102.98
2018-12-22T02:59:06.261Z,100099.45
2018-12-22T03:01:34.235Z,100096.86
2018-12-22T03:04:03.155Z,100092.22
2018-12-22T03:06:32.291Z,100091.27
2018-12-22T03:09:01.233Z,100086.64
2018-12-22T03:11:31.373Z,100073.63
2018-12-22T03:14:00.350Z,100068.33
2018-12-22T03:16:29.362Z,100060.41
2018-12-22T03:18:58.342Z,100058.15
2018-12-22T03:21:27.503Z,100049.42
2018-12-22T03:23:56.470Z,100047.11
2018-12-22T03:26:25.460Z,100045.70
2018-12-22T03:28:54.673Z,100036.93
2018-12-22T03:31:23.607Z,100034.59
2018-12-22T03:33:52.742Z,100031.06
2018-12-22T03:36:21.686Z,100023.98
2018-12-22T03:38:50.592Z,100025.42
2018-12-22T03:41:19.691Z,100024.58
2018-12-22T03:43:48.730Z,100023.75
2018-12-22T03:46:17.566Z,100016.77
2018-12-22T03:48:46.628Z,100029.80
2018-12-22T03:51:15.638Z,100033.70
2018-12-22T03:53:44.544Z,100039.02
2018-12-22T03:56:14.534Z,100040.21
2018-12-22T03:58:43.539Z,100038.53
2018-12-22T04:01:12.445Z,100039.48
2018-12-22T04:03:41.442Z,100034.63
2018-12-22T04:06:10.512Z,100030.22
2018-12-22T04:08:39.416Z,100030.69
2018-12-22T04:11:08.491Z,100035.17
2018-12-22T04:13:37.425Z,100031.52
2018-12-22T04:16:06.470Z,100028.54
2018-12-22T04:18:35.482Z,100027.09
2018-12-22T04:21:05.072Z,100023.77
2018-12-22T04:23:33.973Z,100030.42
2018-12-22T04:26:03.173Z,100018.81
2018-12-22T04:28:32.045Z,100022.61
2018-12-22T04:31:00.917Z,100006.37
2018-12-22T04:33:30.029Z,99995.13
2018-12-22T04:35:59.004Z,99988.61
2018-12-22T04:38:27.935Z,99977.73
2018-12-22T04:40:57.003Z,99959.77
2018-12-22T04:43:33.958Z,99955.03
2018-12-22T04:46:04.822Z,99953.61
2018-12-22T04:48:33.820Z,99951.15
2018-12-22T04:51:02.806Z,99949.27
2018-12-22T04:53:31.731Z,99959.48
2018-12-22T04:56:00.714Z,99961.36
2018-12-22T04:58:29.778Z,99958.06
2018-12-22T05:00:58.778Z,99951.52
2018-12-22T05:03:27.763Z,99956.59
2018-12-22T05:05:56.680Z,99956.70
2018-12-22T05:08:25.675Z,99954.19
2018-12-22T05:10:54.726Z,99948.75
2018-12-22T05:13:23.734Z,99968.28
2018-12-22T05:15:52.650Z,99970.20
2018-12-22T05:18:21.642Z,99977.67
2018-12-22T05:20:51.568Z,99982.99
2018-12-22T05:23:20.614Z,99985.68
2018-12-22T05:25:49.622Z,99982.84
2018-12-22T05:28:19.458Z,99983.31
2018-12-22T05:30:48.308Z,99989.09
2018-12-22T05:33:17.165Z,99994.64
2018-12-22T05:35:46.112Z,99990.73
2018-12-22T05:38:15.104Z,99990.28
2018-12-22T05:40:44.108Z,100003.18
2018-12-22T05:43:13.256Z,100007.08
2018-12-22T05:45:42.170Z,100010.98
2018-12-22T05:48:11.185Z,100021.40
2018-12-22T05:50:40.072Z,100025.88
2018-12-22T05:53:09.072Z,100028.02
2018-12-22T05:55:38.064Z,100033.34
2018-12-22T05:58:07.061Z,100038.17
2018-12-22T06:00:36.145Z,100031.66
2018-12-22T06:03:05.734Z,100046.36
2018-12-22T06:05:34.645Z,100040.42
2018-12-22T06:08:03.647Z,100054.73
2018-12-22T06:10:32.623Z,100059.38
2018-12-22T06:13:01.621Z,100064.58
2018-12-22T06:15:30.718Z,100067.53
2018-12-22T06:17:59.699Z,100069.41
2018-12-22T06:20:28.611Z,100076.48
2018-12-22T06:22:57.586Z,100084.67
2018-12-22T06:25:26.723Z,100086.66
2018-12-22T06:27:55.671Z,100095.05
2018-12-22T06:30:24.654Z,100097.27
2018-12-22T06:32:53.550Z,100108.52
2018-12-22T06:35:22.555Z,100114.56
2018-12-22T06:37:51.542Z,100125.13
2018-12-22T06:40:20.602Z,100129.50
2018-12-22T06:42:49.530Z,100138.50
2018-12-22T06:45:18.516Z,100150.48
2018-12-22T06:47:47.510Z,100172.23
2018-12-22T06:50:16.502Z,100190.38
2018-12-22T06:52:45.583Z,100196.50
2018-12-22T06:55:14.508Z,100210.92
2018-12-22T06:57:43.479Z,100215.23
2018-12-22T08:45:02.894Z,100484.16
2018-12-22T08:47:31.726Z,100484.42
2018-12-22T08:50:08.729Z,100499.21
2018-12-22T08:52:31.556Z,100500.41
2018-12-22T08:55:00.530Z,100503.76
2018-12-22T08:57:29.624Z,100505.34
2018-12-22T08:59:58.590Z,100526.70
2018-12-22T09:02:27.527Z,100523.75
2018-12-22T09:04:56.498Z,100531.45
2018-12-22T09:07:25.558Z,100538.25
2018-12-22T09:09:54.558Z,100544.20
2018-12-22T09:12:23.478Z,100549.66
2018-12-22T09:14:52.493Z,100551.25
2018-12-22T09:17:21.299Z,100564.16
2018-12-22T09:19:50.155Z,100558.41
2018-12-22T09:22:19.155Z,100564.19
2018-12-22T09:24:48.203Z,100565.78
2018-12-22T09:27:17.207Z,100573.03
2018-12-22T09:29:46.217Z,100572.55
2018-12-22T09:32:15.105Z,100582.14
2018-12-22T09:34:49.123Z,100589.66
2018-12-22T09:37:18.088Z,100588.84
2018-12-22T09:39:47.079Z,100588.19
2018-12-22T09:42:16.075Z,100594.14
2018-12-22T09:44:44.883Z,100599.63
2018-12-22T09:47:13.980Z,100600.28
2018-12-22T09:49:43.063Z,100602.49
2018-12-22T09:52:11.961Z,100600.64
2018-12-22T09:54:40.959Z,100608.84
2018-12-22T09:57:09.961Z,100603.53
2018-12-22T09:59:39.012Z,100615.99
2018-12-22T10:02:07.945Z,100603.44
2018-12-22T10:04:36.988Z,100608.08
2018-12-22T10:07:05.996Z,100609.22
2018-12-22T10:09:34.925Z,100614.33
2018-12-22T10:12:04.039Z,100612.37
2018-12-22T10:14:32.902Z,100606.05
2018-12-22T10:17:02.043Z,100612.61
2018-12-22T10:19:30.963Z,100621.17
2018-12-22T10:21:59.866Z,100622.27
2018-12-22T10:24:28.870Z,100629.36
2018-12-22T10:26:57.862Z,100631.50
2018-12-22T10:29:26.842Z,100629.25
2018-12-22T10:31:56.156Z,100634.01
2018-12-22T10:34:25.209Z,100634.30
2018-12-22T10:36:54.253Z,100630.28
2018-12-22T10:39:23.218Z,100635.11
2018-12-22T10:41:52.126Z,100633.34
2018-12-22T10:44:21.252Z,100634.94
2018-12-22T10:46:50.121Z,100645.55
2018-12-22T10:49:19.170Z,100643.19
2018-12-22T10:51:48.127Z,100645.62
2018-12-22T10:54:17.075Z,100651.94
2018-12-22T10:56:46.167Z,100654.37
2018-12-22T10:59:15.055Z,100664.03
2018-12-22T11:01:44.143Z,100659.20
2018-12-22T11:04:13.369Z,100661.81
2018-12-22T11:06:42.431Z,100660.41
2018-12-22T11:09:14.922Z,100670.27
2018-12-22T11:11:43.706Z,100667.67
2018-12-22T11:14:12.512Z,100672.33
2018-12-22T11:16:41.462Z,100678.17
2018-12-22T11:19:10.386Z,100680.72
2018-12-22T11:21:39.387Z,100675.01
2018-12-22T11:24:08.372Z,100676.24
2018-12-22T11:26:37.355Z,100679.30
2018-12-22T11:29:06.346Z,100668.50
2018-12-22T11:31:35.423Z,100678.16
2018-12-22T11:34:05.251Z,100675.84
2018-12-22T11:36:35.108Z,100680.78
2018-12-22T11:39:06.990Z,100678.45
2018-12-22T11:41:36.290Z,100694.45
2018-12-22T11:44:06.211Z,100686.63
2018-12-22T11:46:35.799Z,100685.33
2018-12-22T11:49:41.972Z,100694.09
2018-12-22T11:52:10.983Z,100695.95
2018-12-22T11:54:40.012Z,100703.80
2018-12-22T11:57:09.186Z,100696.35
2018-12-22T11:59:38.208Z,100707.50
2018-12-22T12:02:09.828Z,100707.42
2018-12-22T12:04:38.140Z,100709.73
2018-12-22T12:07:07.083Z,100701.44
2018-12-22T12:09:36.003Z,100691.77
2018-12-22T12:12:05.148Z,100707.50
2018-12-22T12:14:34.108Z,100714.20
2018-12-22T12:17:13.830Z,100713.29
2018-12-22T12:19:42.952Z,100721.11
2018-12-22T12:22:12.019Z,100720.61
2018-12-22T12:24:41.011Z,100725.37
2018-12-22T12:27:10.254Z,100725.37
2018-12-22T12:29:39.116Z,100736.99
2018-12-22T12:32:08.091Z,100741.39
2018-12-22T12:34:36.979Z,100748.55
2018-12-22T12:37:06.094Z,100754.87
2018-12-22T12:39:34.986Z,100751.70
2018-12-22T12:42:04.108Z,100747.80
2018-12-22T12:44:33.039Z,100756.10
2018-12-22T12:49:54.890Z,100769.49
2018-12-22T12:52:24.131Z,100764.73
2018-12-22T12:54:52.858Z,100772.95
2018-12-22T12:57:22.107Z,100770.44
2018-12-22T12:59:50.854Z,100775.84
2018-12-22T13:02:20.103Z,100787.83
2018-12-22T13:04:49.133Z,100787.76
2018-12-22T13:07:18.842Z,100793.43
2018-12-22T13:09:47.988Z,100789.42
2018-12-22T13:12:20.623Z,100788.30
2018-12-22T13:14:50.975Z,100789.25
2018-12-22T13:17:20.039Z,100795.77
2018-12-22T13:19:48.955Z,100795.77
2018-12-22T13:22:19.123Z,100801.53
2018-12-22T13:24:48.168Z,100800.69
2018-12-22T13:27:17.275Z,100818.47
2018-12-22T13:29:46.314Z,100812.91
2018-12-22T13:32:15.144Z,100814.47
2018-12-22T13:34:46.182Z,100819.61
2018-12-22T13:37:15.103Z,100825.73
2018-12-22T13:39:44.975Z,100830.95
2018-12-22T13:42:14.271Z,100827.44
2018-12-22T13:44:43.292Z,100832.81
2018-12-22T13:47:12.288Z,100838.23
2018-12-22T13:49:41.478Z,100836.72
2018-12-22T13:52:10.462Z,100841.58
2018-12-22T13:54:39.746Z,100847.25
2018-12-22T13:57:08.901Z,100848.65
2018-12-22T13:59:37.898Z,100851.81
2018-12-22T14:02:08.583Z,100860.19
2018-12-22T14:04:38.591Z,100861.00
2018-12-22T14:07:10.481Z,100864.45
2018-12-22T14:09:39.410Z,100869.86
2018-12-22T14:12:08.311Z,100875.34
2018-12-22T14:14:39.659Z,100875.23
2018-12-22T14:17:13.096Z,100867.58
2018-12-22T14:19:47.794Z,100891.33
2018-12-22T14:22:17.030Z,100897.55
2018-12-22T14:24:48.983Z,100894.58
2018-12-22T14:27:17.964Z,100904.31
2018-12-22T14:29:46.926Z,100904.12
2018-12-22T14:32:16.348Z,100915.28
2018-12-22T14:34:51.215Z,100917.28
2018-12-22T14:37:20.379Z,100920.74
2018-12-22T14:39:49.502Z,100918.44
2018-12-22T14:42:18.264Z,100928.77
2018-12-22T14:44:47.411Z,100929.77
2018-12-22T14:47:16.480Z,100937.52
2018-12-22T14:49:47.015Z,100937.97
2018-12-22T14:52:15.811Z,100943.09
2018-12-22T14:54:44.906Z,100951.00
2018-12-22T14:57:13.887Z,100958.42
2018-12-22T14:59:43.088Z,100978.45
2018-12-22T15:02:12.510Z,100974.55
2018-12-22T15:04:42.345Z,100989.78
2018-12-22T15:07:11.453Z,100982.91
2018-12-22T15:09:40.583Z,100989.42
2018-12-22T15:12:09.780Z,100994.33
2018-12-22T15:14:38.661Z,100997.57
2018-12-22T15:17:07.782Z,100994.23
2018-12-22T15:19:38.468Z,101001.14
2018-12-22T15:22:07.772Z,101012.02
2018-12-22T15:24:36.738Z,101017.68
2018-12-22T15:27:05.768Z,101018.98
2018-12-22T15:29:34.808Z,101017.77
2018-12-22T15:32:04.035Z,101024.73
2018-12-22T15:34:33.330Z,101026.34
2018-12-22T15:37:02.320Z,101024.73
2018-12-22T15:39:31.248Z,101034.89
2018-12-22T15:42:00.302Z,101034.04
2018-12-22T15:44:29.446Z,101037.95
2018-12-22T15:46:58.330Z,101038.41
2018-12-22T15:49:27.630Z,101043.91
2018-12-22T15:51:56.494Z,101041.95
2018-12-22T15:54:26.650Z,101046.61
2018-12-22T15:56:55.534Z,101040.64
2018-12-22T15:59:24.631Z,101051.13
2018-12-22T16:01:59.700Z,101051.61
2018-12-22T16:04:28.523Z,101057.14
2018-12-22T16:06:57.647Z,101061.11
2018-12-22T16:09:26.894Z,101054.78
2018-12-22T16:11:55.931Z,101056.63
2018-12-22T16:14:25.199Z,101066.64
2018-12-22T16:16:54.099Z,101075.76
2018-12-22T16:19:23.215Z,101085.27
2018-12-22T16:21:52.236Z,101081.96
2018-12-22T16:24:21.616Z,101085.92
2018-12-22T16:26:50.776Z,101099.13
2018-12-22T16:29:26.083Z,101100.56
2018-12-22T16:31:55.119Z,101092.84
2018-12-22T16:34:24.511Z,101099.05
2018-12-22T16:36:53.508Z,101100.88
2018-12-22T16:39:23.454Z,101104.03
2018-12-22T16:41:52.902Z,101104.03
2018-12-22T16:44:22.064Z,101110.62
2018-12-22T16:46:51.096Z,101113.31
2018-12-22T16:49:19.902Z,101112.06
2018-12-22T16:51:48.987Z,101116.68
2018-12-22T16:54:18.007Z,101127.86
2018-12-22T16:56:46.878Z,101123.41
2018-12-22T16:59:15.871Z,101121.66
2018-12-22T17:02:05.086Z,101132.13
2018-12-22T17:04:34.694Z,101126.92
2018-12-22T17:07:03.678Z,101137.42
2018-12-22T17:09:32.995Z,101126.55
2018-12-22T17:12:02.192Z,101137.82
2018-12-22T17:14:31.269Z,101134.99
2018-12-22T17:17:00.088Z,101135.05
2018-12-22T17:19:29.415Z,101141.55
2018-12-22T17:22:16.152Z,101143.39
2018-12-22T17:24:53.444Z,101152.50
2018-12-22T17:27:22.642Z,101149.36
2018-12-22T17:29:51.399Z,101139.72
2018-12-22T17:32:20.646Z,101144.55
2018-12-22T17:34:49.702Z,101151.91
2018-12-22T17:37:19.071Z,101155.65
2018-12-22T17:39:53.375Z,101160.31
2018-12-22T17:42:20.734Z,101161.31
2018-12-22T17:44:49.751Z,101163.45
2018-12-22T17:47:18.646Z,101178.99
2018-12-22T17:49:47.638Z,101181.55
2018-12-22T17:52:16.718Z,101187.20
2018-12-22T17:54:45.698Z,101184.60
2018-12-22T17:57:14.706Z,101192.41
2018-12-22T17:59:43.610Z,101196.69
2018-12-22T18:02:12.688Z,101196.15
2018-12-22T18:04:41.609Z,101204.81
2018-12-22T18:07:10.827Z,101209.11
2018-12-22T18:09:39.662Z,101207.81
2018-12-22T18:12:08.650Z,101202.12
2018-12-22T18:14:37.566Z,101209.11
2018-12-22T18:17:06.654Z,101213.16
2018-12-22T18:19:35.702Z,101210.23
2018-12-22T18:22:05.164Z,101212.08
2018-12-22T18:24:34.689Z,101216.38
2018-12-22T18:27:03.550Z,101226.34
2018-12-22T18:29:32.690Z,101232.63
2018-12-22T18:32:01.446Z,101227.47
2018-12-22T18:34:30.562Z,101232.39
2018-12-22T18:36:59.487Z,101237.06
2018-12-22T18:39:28.647Z,101241.02
2018-12-22T18:41:57.412Z,101234.67
2018-12-22T18:44:26.491Z,101237.28
2018-12-22T18:46:55.503Z,101235.66
2018-12-22T18:49:24.510Z,101237.41
2018-12-22T18:51:53.616Z,101246.52
2018-12-22T18:54:22.586Z,101245.76
2018-12-22T18:56:51.890Z,101238.88
2018-12-22T18:59:22.006Z,101243.69
2018-12-22T19:01:51.116Z,101249.83
2018-12-22T19:04:20.189Z,101246.99
2018-12-22T19:06:50.164Z,101251.97
2018-12-22T19:09:26.183Z,101257.25
2018-12-22T19:11:55.268Z,101253.97
2018-12-22T19:14:24.222Z,101253.73
2018-12-22T19:16:53.124Z,101256.10
2018-12-22T19:19:22.258Z,101258.02
2018-12-22T19:21:51.179Z,101261.15
2018-12-22T19:24:20.237Z,101261.59
2018-12-22T19:26:49.229Z,101272.38
2018-12-22T19:29:18.084Z,101278.06
2018-12-22T19:31:47.205Z,101294.66
2018-12-22T19:34:16.155Z,101304.83
2018-12-22T19:36:45.229Z,101295.85
2018-12-22T19:39:14.232Z,101292.19
2018-12-22T19:41:43.514Z,101291.47
2018-12-22T19:44:12.590Z,101297.80
2018-12-22T19:46:41.350Z,101297.44
2018-12-22T19:49:10.076Z,101301.38
2018-12-22T19:51:39.100Z,101296.78
2018-12-22T19:54:08.751Z,101294.27
2018-12-22T19:56:38.245Z,101297.77
2018-12-22T19:59:07.656Z,101298.77
2018-12-22T20:01:36.543Z,101296.02
2018-12-22T20:04:06.060Z,101297.19
2018-12-22T20:06:34.899Z,101299.55
2018-12-22T20:09:05.247Z,101300.03
2018-12-22T20:11:34.236Z,101306.78
2018-12-22T20:14:03.111Z,101300.20
2018-12-22T20:16:32.559Z,101299.27
2018-12-22T20:19:01.336Z,101307.80
2018-12-22T20:21:30.391Z,101306.42
2018-12-22T20:23:59.453Z,101303.66
2018-12-22T20:26:28.535Z,101297.23
2018-12-22T20:28:57.515Z,101305.73
2018-12-22T20:31:26.423Z,101309.88
2018-12-22T20:33:55.279Z,101316.70
2018-12-22T20:36:24.398Z,101320.16
2018-12-22T20:38:53.255Z,101316.33
2018-12-22T20:41:22.287Z,101316.01
2018-12-22T20:43:51.361Z,101316.91
2018-12-22T20:46:20.353Z,101313.33
2018-12-22T20:48:49.347Z,101323.66
2018-12-22T20:51:18.240Z,101324.51
2018-12-22T20:53:47.371Z,101320.08
2018-12-22T20:56:16.446Z,101319.09
2018-12-22T20:58:45.515Z,101321.70
2018-12-22T21:01:14.579Z,101323.00
2018-12-22T21:03:43.640Z,101326.98
2018-12-22T21:06:17.122Z,101332.77
2018-12-22T21:08:46.211Z,101330.24
2018-12-22T21:11:15.295Z,101337.16
2018-12-22T21:13:44.135Z,101338.83
2018-12-22T21:16:13.182Z,101343.13
2018-12-22T21:18:42.168Z,101349.69
2018-12-22T21:21:12.726Z,101353.91
2018-12-22T21:23:41.641Z,101347.85
2018-12-22T21:26:10.567Z,101361.80
2018-12-22T21:28:39.704Z,101353.98
2018-12-22T21:31:08.791Z,101362.13
2018-12-22T21:33:37.930Z,101371.92
2018-12-22T21:36:06.931Z,101367.70
2018-12-22T21:38:35.923Z,101369.16
2018-12-22T21:41:05.598Z,101372.20
2018-12-22T21:43:34.686Z,101376.96
2018-12-22T21:46:03.738Z,101377.48
2018-12-22T21:48:32.726Z,101376.19
2018-12-22T21:51:01.722Z,101373.27
2018-12-22T21:53:30.724Z,101365.81
2018-12-22T21:55:59.885Z,101379.64
2018-12-22T21:58:29.618Z,101382.41
2018-12-22T22:00:58.623Z,101385.13
2018-12-22T22:03:27.692Z,101380.78
2018-12-22T22:05:56.590Z,101384.36
2018-12-22T22:08:25.588Z,101387.11
2018-12-22T22:10:54.587Z,101387.11
2018-12-22T22:13:23.803Z,101388.08
2018-12-22T22:15:54.798Z,101380.88
2018-12-22T22:18:23.943Z,101387.06
2018-12-22T22:20:52.706Z,101387.98
2018-12-22T22:23:21.686Z,101400.52
2018-12-22T22:25:50.822Z,101403.59
2018-12-22T22:28:19.804Z,101407.42
2018-12-22T22:30:48.663Z,101409.62
2018-12-22T22:33:17.654Z,101414.82
2018-12-22T22:35:46.655Z,101421.33
2018-12-22T22:38:15.785Z,101429.65
2018-12-22T22:40:44.636Z,101424.67
2018-12-22T22:43:13.630Z,101426.54
2018-12-22T22:45:42.623Z,101424.02
2018-12-22T22:48:11.847Z,101427.06
2018-12-22T22:50:40.570Z,101423.31
2018-12-22T22:53:09.721Z,101428.06
2018-12-22T22:55:38.582Z,101427.22
2018-12-22T22:58:07.714Z,101434.05
2018-12-22T23:00:37.974Z,101429.66
2018-12-22T23:03:08.151Z,101430.19
2018-12-22T23:05:37.022Z,101433.79
2018-12-22T23:08:06.010Z,101428.00
2018-12-22T23:10:35.134Z,101425.66
2018-12-22T23:13:04.902Z,101421.69
2018-12-22T23:15:33.977Z,101426.03
2018-12-22T23:18:03.446Z,101429.94
2018-12-22T23:20:32.195Z,101429.94
2018-12-22T23:23:01.186Z,101431.72
2018-12-22T23:25:30.183Z,101435.55
2018-12-22T23:27:59.176Z,101434.58
2018-12-22T23:30:29.338Z,101438.92
2018-12-22T23:32:58.386Z,101436.25
2018-12-22T23:35:27.442Z,101428.89
2018-12-22T23:37:56.366Z,101427.59
2018-12-22T23:40:25.371Z,101429.82
2018-12-22T23:42:54.471Z,101433.80
2018-12-22T23:45:23.362Z,101437.99
2018-12-22T23:47:52.358Z,101430.16
2018-12-22T23:50:21.152Z,101437.09
2018-12-22T23:52:49.930Z,101439.55
2018-12-22T23:55:19.951Z,101439.44
2018-12-22T23:57:49.069Z,101444.97
